Time;durP1;ratioP1;P1;durP2;ratioP2;P2;SDS_P1;SDS_P2;PMS_P1;PMS_P2;Temp;Humidity;BMP_temperature;BMP_pressure;BME280_temperature;BME280_humidity;BME280_pressure;Samples;Min_cycle;Max_cycle;Signal;HPM_P1;HPM_P2
2021/07/05 00:02:06;;;;;;;7.70;7.00;;;22.60;1.00;;;;;;5077636;28;20791;-67
2021/07/05 00:04:33;;;;;;;7.13;6.60;;;22.60;1.00;;;;;;5077656;28;20458;-67
2021/07/05 00:06:59;;;;;;;7.70;7.07;;;22.60;1.00;;;;;;5078440;28;20756;-67
2021/07/05 00:09:26;;;;;;;7.10;6.60;;;22.50;1.00;;;;;;5077497;28;20458;-67
2021/07/05 00:11:56;;;;;;;7.57;6.90;;;22.50;1.00;;;;;;5077470;28;20486;-67
2021/07/05 00:14:23;;;;;;;7.87;7.27;;;22.50;1.00;;;;;;5077240;28;20462;-68
2021/07/05 00:16:50;;;;;;;7.80;7.00;;;22.40;1.00;;;;;;5077078;28;20465;-67
2021/07/05 00:19:17;;;;;;;7.87;7.17;;;22.40;1.00;;;;;;5077533;28;20462;-67
2021/07/05 00:21:44;;;;;;;8.23;7.43;;;22.30;1.00;;;;;;5077111;28;20462;-67
2021/07/05 00:24:10;;;;;;;8.83;7.10;;;22.30;1.00;;;;;;5077510;28;20469;-67
2021/07/05 00:26:37;;;;;;;11.40;7.40;;;22.30;1.00;;;;;;5076897;28;20466;-67
2021/07/05 00:29:05;;;;;;;8.33;7.53;;;22.20;1.00;;;;;;5076492;28;20489;-67
2021/07/05 00:31:32;;;;;;;9.07;8.20;;;22.20;1.00;;;;;;5077565;28;20478;-67
2021/07/05 00:33:59;;;;;;;8.43;7.53;;;22.20;1.00;;;;;;5077299;28;20454;-67
2021/07/05 00:36:26;;;;;;;8.60;7.80;;;22.10;9.30;;;;;;5077182;28;20454;-67
2021/07/05 00:38:52;;;;;;;7.73;7.03;;;22.10;56.40;;;;;;5077157;28;20465;-68
2021/07/05 00:41:19;;;;;;;8.30;7.60;;;22.00;81.80;;;;;;5077384;28;20454;-67
2021/07/05 00:43:46;;;;;;;8.13;7.43;;;22.00;99.90;;;;;;5077568;28;20918;-67
2021/07/05 00:46:14;;;;;;;8.33;7.63;;;21.90;99.90;;;;;;5076595;28;20447;-67
2021/07/05 00:48:40;;;;;;;8.23;7.53;;;21.90;98.60;;;;;;5076487;28;20932;-67
2021/07/05 00:51:07;;;;;;;8.63;7.90;;;21.90;95.00;;;;;;5076657;28;20466;-68
2021/07/05 00:53:34;;;;;;;8.80;8.00;;;21.90;99.90;;;;;;5076992;28;20802;-68
2021/07/05 00:56:01;;;;;;;9.37;8.50;;;21.90;99.90;;;;;;5076556;28;20473;-68
2021/07/05 00:58:28;;;;;;;10.13;9.20;;;21.80;99.90;;;;;;5076192;28;20923;-68
2021/07/05 01:00:54;;;;;;;9.27;8.43;;;21.80;99.90;;;;;;5076164;28;20473;-67
2021/07/05 01:03:22;;;;;;;9.73;8.83;;;21.80;99.90;;;;;;5076541;28;20458;-67
2021/07/05 01:05:49;;;;;;;9.70;8.90;;;21.80;99.90;;;;;;5076682;28;20469;-66
2021/07/05 01:08:16;;;;;;;10.23;9.17;;;21.70;99.90;;;;;;5076590;28;20454;-67
2021/07/05 01:10:43;;;;;;;9.33;8.53;;;21.70;99.90;;;;;;5076537;28;20458;-67
2021/07/05 01:13:09;;;;;;;10.53;9.43;;;21.70;99.90;;;;;;5076876;28;20482;-66
2021/07/05 01:15:36;;;;;;;9.80;8.90;;;21.70;99.90;;;;;;5076666;28;20462;-68
2021/07/05 01:18:06;;;;;;;9.40;8.57;;;21.70;99.90;;;;;;5076633;28;20772;-67
2021/07/05 01:20:35;;;;;;;8.83;8.13;;;21.70;99.90;;;;;;5076372;28;20469;-68
2021/07/05 01:23:07;;;;;;;9.60;8.80;;;21.60;99.90;;;;;;5076278;28;20450;-68
2021/07/05 01:25:35;;;;;;;10.10;9.20;;;21.60;99.90;;;;;;5076960;28;20438;-66
2021/07/05 01:28:03;;;;;;;10.67;9.77;;;21.60;99.90;;;;;;5076392;28;20458;-66
2021/07/05 01:30:30;;;;;;;8.97;8.27;;;21.50;99.90;;;;;;5076447;28;20468;-67
2021/07/05 01:33:00;;;;;;;9.90;9.00;;;21.50;99.90;;;;;;5076236;28;20477;-66
2021/07/05 01:35:27;;;;;;;10.10;9.10;;;21.50;99.90;;;;;;5076588;28;20470;-66
2021/07/05 01:37:54;;;;;;;9.77;8.90;;;21.50;99.90;;;;;;5076888;28;20781;-66
2021/07/05 01:40:30;;;;;;;10.80;9.80;;;21.40;99.90;;;;;;5076839;28;20497;-67
2021/07/05 01:42:59;;;;;;;8.97;8.27;;;21.40;99.90;;;;;;5076428;28;20460;-66
2021/07/05 01:45:29;;;;;;;10.50;9.50;;;21.40;99.90;;;;;;5076857;28;20462;-66
2021/07/05 01:47:59;;;;;;;10.20;9.20;;;21.40;99.90;;;;;;5076180;28;20965;-66
2021/07/05 01:50:26;;;;;;;10.40;9.40;;;21.30;99.90;;;;;;5076367;28;20919;-68
2021/07/05 01:52:54;;;;;;;10.13;9.33;;;21.30;1.00;;;;;;5076381;28;20482;-66
2021/07/05 01:55:28;;;;;;;10.80;9.80;;;21.20;1.00;;;;;;5076864;28;20460;-68
2021/07/05 01:57:54;;;;;;;10.70;9.77;;;21.20;1.00;;;;;;5076139;28;20434;-68
2021/07/05 02:00:22;;;;;;;10.10;9.20;;;21.20;1.00;;;;;;5076611;28;20469;-68
2021/07/05 02:02:52;;;;;;;11.00;9.83;;;21.10;1.00;;;;;;5076143;28;20460;-68
2021/07/05 02:05:19;;;;;;;10.80;9.90;;;21.10;1.00;;;;;;5076299;28;20462;-68
2021/07/05 02:07:46;;;;;;;10.83;9.43;;;21.10;1.00;;;;;;5076276;28;20453;-68
2021/07/05 02:10:16;;;;;;;10.13;9.33;;;21.10;1.00;;;;;;5076507;28;20454;-66
2021/07/05 02:12:44;;;;;;;9.77;8.97;;;21.00;1.00;;;;;;5078173;28;20785;-68
2021/07/05 02:15:13;;;;;;;11.20;10.20;;;21.00;1.00;;;;;;5081233;28;20454;-68
2021/07/05 02:17:41;;;;;;;10.27;9.47;;;21.00;1.00;;;;;;5081876;28;20458;-68
2021/07/05 02:20:10;;;;;;;11.30;10.10;;;21.00;1.00;;;;;;5079615;28;20468;-68
2021/07/05 02:22:37;;;;;;;10.87;9.87;;;20.90;12.10;;;;;;5080019;28;20450;-68
2021/07/05 02:25:07;;;;;;;11.47;10.57;;;20.90;99.90;;;;;;5079893;28;20458;-68
2021/07/05 02:27:33;;;;;;;11.57;10.53;;;20.90;99.90;;;;;;5079086;28;20519;-66
2021/07/05 02:30:02;;;;;;;10.70;9.70;;;20.80;99.90;;;;;;5078890;28;20894;-67
2021/07/05 02:32:29;;;;;;;10.23;9.33;;;20.80;99.90;;;;;;5079626;28;20482;-67
2021/07/05 02:34:55;;;;;;;11.20;10.10;;;20.80;99.90;;;;;;5080055;28;20466;-67
2021/07/05 02:37:22;;;;;;;10.13;9.23;;;20.80;99.90;;;;;;5078638;28;20465;-67
2021/07/05 02:39:49;;;;;;;11.50;10.40;;;20.70;99.90;;;;;;5078891;28;20454;-67
2021/07/05 02:42:16;;;;;;;12.20;11.10;;;20.70;99.90;;;;;;5078629;28;20454;-67
2021/07/05 02:44:43;;;;;;;12.40;11.23;;;20.70;99.90;;;;;;5078681;28;20458;-67
2021/07/05 02:47:11;;;;;;;12.60;11.50;;;20.60;1.00;;;;;;5079066;28;20903;-67
2021/07/05 02:49:38;;;;;;;11.53;10.53;;;20.60;1.00;;;;;;5078731;28;20442;-67
2021/07/05 02:52:05;;;;;;;12.80;11.60;;;20.60;1.00;;;;;;5079015;28;20493;-67
2021/07/05 02:54:32;;;;;;;11.70;10.70;;;20.60;1.00;;;;;;5079271;28;20501;-67
2021/07/05 02:56:58;;;;;;;11.97;10.80;;;20.60;1.00;;;;;;5079581;28;20469;-67
2021/07/05 02:59:25;;;;;;;12.37;11.07;;;20.50;1.00;;;;;;5079493;28;20469;-67
2021/07/05 03:01:52;;;;;;;12.30;11.30;;;20.50;99.90;;;;;;5079952;28;20825;-67
2021/07/05 03:04:20;;;;;;;11.90;10.90;;;20.50;99.90;;;;;;5080030;28;20469;-67
2021/07/05 03:06:47;;;;;;;12.47;11.43;;;20.50;1.00;;;;;;5078945;28;20462;-67
2021/07/05 03:09:13;;;;;;;12.03;10.80;;;20.50;1.00;;;;;;5079513;28;20458;-67
2021/07/05 03:11:40;;;;;;;12.50;11.30;;;20.50;1.00;;;;;;5079614;28;20462;-67
2021/07/05 03:14:07;;;;;;;12.70;11.60;;;20.40;1.00;;;;;;5079018;28;20469;-67
2021/07/05 03:16:34;;;;;;;14.50;11.23;;;20.40;1.00;;;;;;5079138;28;20446;-67
2021/07/05 03:19:00;;;;;;;12.23;11.17;;;20.40;1.00;;;;;;5078859;28;20938;-67
2021/07/05 03:21:28;;;;;;;12.77;11.60;;;20.40;1.00;;;;;;5078883;28;20465;-67
2021/07/05 03:23:56;;;;;;;13.97;11.77;;;20.50;1.00;;;;;;5078430;28;20454;-67
2021/07/05 03:26:23;;;;;;;12.00;11.00;;;20.40;1.00;;;;;;5080156;28;20821;-67
2021/07/05 03:28:50;;;;;;;12.27;11.17;;;20.40;98.90;;;;;;5078603;28;20457;-67
2021/07/05 03:31:16;;;;;;;12.50;11.30;;;20.50;99.90;;;;;;5078568;28;20457;-67
2021/07/05 03:33:43;;;;;;;11.77;10.77;;;20.50;99.90;;;;;;5080622;28;20489;-67
2021/07/05 03:36:10;;;;;;;12.13;11.13;;;20.50;1.00;;;;;;5080591;28;20480;-67
2021/07/05 03:38:38;;;;;;;12.63;11.43;;;20.50;1.00;;;;;;5079836;28;20911;-67
2021/07/05 03:41:05;;;;;;;13.30;12.00;;;20.50;1.00;;;;;;5080198;28;20454;-67
2021/07/05 03:43:32;;;;;;;11.77;10.77;;;20.60;1.00;;;;;;5080472;28;20454;-67
2021/07/05 03:45:58;;;;;;;12.87;11.67;;;20.60;1.00;;;;;;5079604;28;20458;-66
2021/07/05 03:48:25;;;;;;;12.47;11.37;;;20.60;99.90;;;;;;5079266;28;20830;-67
2021/07/05 03:50:53;;;;;;;14.40;11.07;;;20.60;99.90;;;;;;5080623;28;20519;-66
2021/07/05 03:53:19;;;;;;;13.07;11.87;;;20.60;74.90;;;;;;5079976;28;20478;-67
2021/07/05 03:55:47;;;;;;;11.93;10.83;;;20.70;99.90;;;;;;5079157;28;20458;-67
2021/07/05 03:58:16;;;;;;;12.37;11.23;;;20.70;99.90;;;;;;5080789;28;20454;-67
2021/07/05 04:00:43;;;;;;;11.90;10.90;;;20.70;99.90;;;;;;5080917;28;20497;-67
2021/07/05 04:03:10;;;;;;;12.80;11.60;;;20.80;99.90;;;;;;5080749;28;20446;-67
2021/07/05 04:05:38;;;;;;;13.70;12.23;;;20.80;99.90;;;;;;5080219;28;20458;-68
2021/07/05 04:08:05;;;;;;;11.63;10.63;;;20.90;48.70;;;;;;5079671;28;20858;-67
2021/07/05 04:10:32;;;;;;;12.97;11.77;;;20.80;1.00;;;;;;5078291;28;20557;-67
2021/07/05 04:13:04;;;;;;;13.17;12.07;;;20.90;1.00;;;;;;5077961;28;20485;-67
2021/07/05 04:15:31;;;;;;;13.10;12.00;;;20.90;1.00;;;;;;5078511;28;20549;-67
2021/07/05 04:17:58;;;;;;;13.10;11.90;;;20.90;1.00;;;;;;5077921;28;20454;-67
2021/07/05 04:20:26;;;;;;;12.67;11.47;;;20.90;1.00;;;;;;5080212;28;20454;-67
2021/07/05 04:22:53;;;;;;;12.37;11.17;;;20.80;1.00;;;;;;5079844;28;20764;-67
2021/07/05 04:25:21;;;;;;;12.47;11.30;;;20.80;1.00;;;;;;5079803;28;20465;-67
2021/07/05 04:27:51;;;;;;;12.10;11.00;;;20.90;1.40;;;;;;5079769;28;20515;-67
2021/07/05 04:30:19;;;;;;;12.83;11.60;;;20.80;1.00;;;;;;5079766;28;20882;-66
2021/07/05 04:32:47;;;;;;;12.70;11.70;;;20.90;1.00;;;;;;5080024;28;20536;-67
2021/07/05 04:35:17;;;;;;;13.60;12.40;;;20.90;1.00;;;;;;5077714;28;20462;-67
2021/07/05 04:37:45;;;;;;;13.03;11.93;;;20.90;20.90;;;;;;5077909;28;20465;-67
2021/07/05 04:40:14;;;;;;;11.63;10.63;;;20.90;1.00;;;;;;5077905;28;20512;-66
2021/07/05 04:42:42;;;;;;;11.40;10.40;;;20.80;1.00;;;;;;5077637;28;20462;-67
2021/07/05 04:45:11;;;;;;;13.27;11.87;;;20.90;95.00;;;;;;5078528;28;20454;-67
2021/07/05 04:47:40;;;;;;;16.13;10.50;;;20.80;98.90;;;;;;5078346;28;20497;-66
2021/07/05 04:50:09;;;;;;;12.60;11.37;;;20.80;99.90;;;;;;5077170;28;20501;-66
2021/07/05 04:52:36;;;;;;;11.00;10.10;;;20.80;99.90;;;;;;5077815;28;20567;-66
2021/07/05 04:55:04;;;;;;;12.63;11.43;;;20.80;99.90;;;;;;5078419;28;20462;-68
2021/07/05 04:57:31;;;;;;;14.53;13.13;;;20.90;99.90;;;;;;5079148;28;20461;-68
2021/07/05 04:59:58;;;;;;;12.20;11.10;;;20.90;99.90;;;;;;5079495;28;20454;-67
2021/07/05 05:02:26;;;;;;;13.17;11.80;;;20.90;99.90;;;;;;5078594;28;20454;-67
2021/07/05 05:04:54;;;;;;;11.80;10.70;;;20.90;99.90;;;;;;5079397;28;20458;-67
2021/07/05 05:07:21;;;;;;;12.73;11.47;;;21.00;99.90;;;;;;5079953;28;20457;-67
2021/07/05 05:09:48;;;;;;;13.17;12.07;;;21.00;99.90;;;;;;5079758;28;20454;-67
2021/07/05 05:12:14;;;;;;;11.83;10.60;;;21.10;1.00;;;;;;5078786;28;20465;-67
2021/07/05 05:14:41;;;;;;;12.87;11.77;;;21.10;1.00;;;;;;5079707;28;20454;-67
2021/07/05 05:17:08;;;;;;;12.17;10.97;;;21.20;1.00;;;;;;5079009;28;20458;-67
2021/07/05 05:19:35;;;;;;;13.80;12.60;;;21.20;1.00;;;;;;5079383;28;20537;-67
2021/07/05 05:22:06;;;;;;;12.47;11.37;;;21.30;1.00;;;;;;5079134;28;20458;-67
2021/07/05 05:24:33;;;;;;;12.30;11.10;;;21.40;1.00;;;;;;5078743;28;20434;-68
2021/07/05 05:27:00;;;;;;;12.87;11.63;;;21.60;1.00;;;;;;5079209;28;20455;-67
2021/07/05 05:29:26;;;;;;;13.40;11.77;;;21.70;99.90;;;;;;5079103;28;20557;-67
2021/07/05 05:31:53;;;;;;;11.93;10.90;;;21.80;99.90;;;;;;5078723;28;20796;-68
2021/07/05 05:34:20;;;;;;;12.70;11.10;;;21.90;99.90;;;;;;5078333;28;20494;-68
2021/07/05 05:36:50;;;;;;;17.23;12.07;;;22.00;99.90;;;;;;5078393;28;20485;-68
2021/07/05 05:39:18;;;;;;;12.17;11.10;;;22.10;1.00;;;;;;5077065;28;20462;-68
2021/07/05 05:41:45;;;;;;;11.97;10.77;;;22.10;1.00;;;;;;5078210;28;20530;-68
2021/07/05 05:44:12;;;;;;;12.67;11.40;;;22.20;1.00;;;;;;5077952;28;20455;-68
2021/07/05 05:46:38;;;;;;;12.20;11.10;;;22.20;1.00;;;;;;5077666;28;20465;-67
2021/07/05 05:49:06;;;;;;;14.80;11.27;;;22.20;1.00;;;;;;5077076;28;20486;-68
2021/07/05 05:51:35;;;;;;;13.33;12.00;;;22.20;1.00;;;;;;5079442;28;20470;-68
2021/07/05 05:54:03;;;;;;;12.27;11.07;;;22.20;1.00;;;;;;5078103;28;20585;-67
2021/07/05 05:56:32;;;;;;;13.23;11.37;;;22.10;1.00;;;;;;5080351;28;20454;-68
2021/07/05 05:59:01;;;;;;;12.60;11.50;;;22.10;1.00;;;;;;5081000;28;20906;-68
2021/07/05 06:01:29;;;;;;;12.07;11.00;;;22.00;1.00;;;;;;5077646;28;20458;-67
2021/07/05 06:03:57;;;;;;;12.73;11.53;;;22.00;6.70;;;;;;5077131;28;20556;-68
2021/07/05 06:06:24;;;;;;;12.30;11.30;;;22.00;45.00;;;;;;5079576;28;20919;-68
2021/07/05 06:08:51;;;;;;;11.83;10.70;;;21.90;99.90;;;;;;5079285;28;20458;-68
2021/07/05 06:11:18;;;;;;;12.63;11.43;;;21.90;99.90;;;;;;5081884;28;20481;-68
2021/07/05 06:13:46;;;;;;;12.20;11.10;;;21.90;99.90;;;;;;5086055;28;20474;-67
2021/07/05 06:16:13;;;;;;;10.60;9.70;;;21.90;90.00;;;;;;5085061;28;20450;-67
2021/07/05 06:18:39;;;;;;;11.40;10.00;;;21.80;99.90;;;;;;5083316;28;20454;-67
2021/07/05 06:21:06;;;;;;;11.40;10.30;;;21.80;83.30;;;;;;5081289;28;20673;-67
2021/07/05 06:23:33;;;;;;;11.37;10.37;;;21.80;1.00;;;;;;5079004;28;20469;-68
2021/07/05 06:26:01;;;;;;;14.90;10.40;;;21.70;99.90;;;;;;5078419;28;20458;-67
2021/07/05 06:28:30;;;;;;;10.90;10.00;;;21.60;99.90;;;;;;5078807;28;20796;-67
2021/07/05 06:30:58;;;;;;;11.17;9.23;;;21.60;99.90;;;;;;5078587;28;20491;-67
2021/07/05 06:33:25;;;;;;;12.47;11.20;;;21.60;1.00;;;;;;5077981;28;20484;-67
2021/07/05 06:35:52;;;;;;;11.47;10.33;;;21.60;99.90;;;;;;5076437;28;20550;-68
2021/07/05 06:38:21;;;;;;;11.30;10.40;;;21.60;1.00;;;;;;5075278;28;20794;-68
2021/07/05 06:40:49;;;;;;;10.97;9.87;;;21.70;1.00;;;;;;5077590;28;20458;-68
2021/07/05 06:43:16;;;;;;;10.60;9.60;;;21.80;1.00;;;;;;5076738;28;20454;-68
2021/07/05 06:45:43;;;;;;;10.00;9.10;;;21.90;1.00;;;;;;5077543;28;20778;-68
2021/07/05 06:48:12;;;;;;;10.60;9.57;;;22.00;1.00;;;;;;5077337;28;20551;-68
2021/07/05 06:50:39;;;;;;;10.83;9.83;;;22.10;1.00;;;;;;5076719;28;20465;-68
2021/07/05 06:53:07;;;;;;;10.63;9.63;;;22.10;1.00;;;;;;5078346;28;20454;-67
2021/07/05 06:55:34;;;;;;;10.00;9.10;;;22.10;1.00;;;;;;5078781;28;20476;-68
2021/07/05 06:58:01;;;;;;;10.07;9.03;;;22.10;1.00;;;;;;5078536;28;20465;-68
2021/07/05 07:00:30;;;;;;;10.40;9.37;;;21.90;1.00;;;;;;5080809;28;20473;-69
2021/07/05 07:02:58;;;;;;;11.10;10.10;;;21.80;1.00;;;;;;5081760;28;20469;-69
2021/07/05 07:05:27;;;;;;;10.47;9.57;;;21.90;99.90;;;;;;5082019;28;20469;-68
2021/07/05 07:07:55;;;;;;;11.07;9.80;;;21.90;99.90;;;;;;5080906;28;20469;-68
2021/07/05 07:10:24;;;;;;;10.93;9.93;;;21.90;1.00;;;;;;5081558;28;20485;-69
2021/07/05 07:12:53;;;;;;;9.97;9.07;;;22.00;1.00;;;;;;5080925;28;20458;-69
2021/07/05 07:15:23;;;;;;;9.50;8.60;;;22.00;99.90;;;;;;5078974;28;20885;-69
2021/07/05 07:17:52;;;;;;;9.73;8.93;;;22.00;99.90;;;;;;5078570;28;20571;-69
2021/07/05 07:20:19;;;;;;;9.73;8.83;;;22.00;99.90;;;;;;5081125;28;20460;-69
2021/07/05 07:22:47;;;;;;;9.20;8.37;;;22.00;99.90;;;;;;5081014;28;20458;-68
2021/07/05 07:25:15;;;;;;;9.47;8.60;;;22.00;99.90;;;;;;5081892;28;20457;-68
2021/07/05 07:27:43;;;;;;;8.73;7.10;;;21.80;99.90;;;;;;5081514;28;20519;-68
2021/07/05 07:30:13;;;;;;;8.60;7.87;;;21.70;99.90;;;;;;5081805;28;20454;-68
2021/07/05 07:32:41;;;;;;;9.13;8.23;;;21.60;1.00;;;;;;5080037;28;20439;-68
2021/07/05 07:35:08;;;;;;;8.27;7.63;;;21.50;1.00;;;;;;5079627;28;20485;-68
2021/07/05 07:37:36;;;;;;;9.17;8.37;;;21.50;99.90;;;;;;5080722;28;20454;-68
2021/07/05 07:40:14;;;;;;;9.43;7.50;;;21.50;99.90;;;;;;5081212;28;20782;-67
2021/07/05 07:42:45;;;;;;;8.90;8.00;;;21.40;99.90;;;;;;5079315;28;20442;-69
2021/07/05 07:45:13;;;;;;;8.67;7.97;;;21.40;1.00;;;;;;5079847;28;20438;-68
2021/07/05 07:47:41;;;;;;;8.73;7.50;;;21.40;1.00;;;;;;5078814;28;20485;-68
2021/07/05 07:50:09;;;;;;;9.10;8.30;;;21.40;1.00;;;;;;5078932;28;20458;-68
2021/07/05 07:52:37;;;;;;;8.80;7.90;;;21.30;99.90;;;;;;5080094;28;20461;-68
2021/07/05 07:55:06;;;;;;;8.33;7.57;;;21.30;1.00;;;;;;5080122;28;20478;-68
2021/07/05 07:57:33;;;;;;;9.70;7.83;;;21.30;1.00;;;;;;5079561;28;20473;-68
2021/07/05 08:00:00;;;;;;;7.93;7.27;;;21.20;99.90;;;;;;5080011;28;20454;-68
2021/07/05 08:02:26;;;;;;;8.63;7.93;;;21.20;99.90;;;;;;5079729;28;20465;-67
2021/07/05 08:04:53;;;;;;;7.50;6.70;;;21.10;99.90;;;;;;5079813;28;20462;-68
2021/07/05 08:07:20;;;;;;;8.93;8.10;;;21.10;99.90;;;;;;5080591;28;20469;-68
2021/07/05 08:09:47;;;;;;;8.60;7.80;;;20.90;1.00;;;;;;5080426;28;20788;-68
2021/07/05 08:12:15;;;;;;;8.27;7.57;;;20.70;1.00;;;;;;5081174;28;20493;-67
2021/07/05 08:14:43;;;;;;;8.27;7.43;;;20.60;1.00;;;;;;5080249;28;20474;-67
2021/07/05 08:17:09;;;;;;;14.67;7.90;;;20.40;1.00;;;;;;5081005;28;20454;-68
2021/07/05 08:19:36;;;;;;;15.83;8.60;;;20.30;1.00;;;;;;5084485;28;20818;-69
2021/07/05 08:22:03;;;;;;;9.30;8.40;;;20.20;11.50;;;;;;5080615;28;20464;-68
2021/07/05 08:24:30;;;;;;;11.90;7.93;;;20.10;35.00;;;;;;5079589;28;20457;-68
2021/07/05 08:26:57;;;;;;;15.93;9.10;;;20.00;55.80;;;;;;5080638;28;20458;-68
2021/07/05 08:29:25;;;;;;;9.40;7.27;;;20.00;97.00;;;;;;5086576;28;20454;-69
2021/07/05 08:31:52;;;;;;;8.70;7.90;;;19.90;99.90;;;;;;5079774;28;20469;-69
2021/07/05 08:34:19;;;;;;;8.20;7.40;;;19.90;99.90;;;;;;5078585;28;21061;-67
2021/07/05 08:36:45;;;;;;;10.60;6.70;;;19.90;99.90;;;;;;5079085;28;20915;-67
2021/07/05 08:39:13;;;;;;;9.50;6.70;;;19.70;99.90;;;;;;5079746;28;20461;-68
2021/07/05 08:41:41;;;;;;;7.27;6.57;;;19.50;99.90;;;;;;5079595;28;20454;-67
2021/07/05 08:44:08;;;;;;;7.73;6.90;;;19.30;99.90;;;;;;5078104;28;20469;-68
2021/07/05 08:46:37;;;;;;;7.40;6.70;;;19.10;99.90;;;;;;5078986;28;20528;-67
2021/07/05 08:49:05;;;;;;;7.70;7.00;;;19.00;99.90;;;;;;5078088;28;20482;-68
2021/07/05 08:51:32;;;;;;;7.60;6.63;;;18.90;99.90;;;;;;5076713;28;20454;-68
2021/07/05 08:53:59;;;;;;;13.03;7.80;;;18.80;99.90;;;;;;5077839;28;20485;-67
2021/07/05 08:56:25;;;;;;;8.63;7.63;;;18.80;99.90;;;;;;5078161;28;20459;-67
2021/07/05 08:58:52;;;;;;;8.27;7.03;;;18.80;99.90;;;;;;5077711;28;20764;-67
2021/07/05 09:01:20;;;;;;;8.70;7.67;;;18.80;99.90;;;;;;5076413;28;20465;-67
2021/07/05 09:03:50;;;;;;;8.93;7.93;;;18.80;99.90;;;;;;5075594;28;20910;-67
2021/07/05 09:06:19;;;;;;;8.93;8.03;;;18.80;99.90;;;;;;5076409;28;20445;-68
2021/07/05 09:09:08;;;;;;;11.10;9.30;;;18.80;99.90;;;;;;5076066;28;20480;-68
2021/07/05 09:11:38;;;;;;;9.47;7.70;;;18.80;99.90;;;;;;5075958;28;20453;-67
2021/07/05 09:14:11;;;;;;;9.33;7.80;;;18.80;99.90;;;;;;5075766;28;20462;-68
2021/07/05 09:16:39;;;;;;;10.60;7.43;;;18.80;99.90;;;;;;5075374;28;20895;-68
2021/07/05 09:19:16;;;;;;;8.10;7.40;;;18.80;99.90;;;;;;5075997;28;20450;-68
2021/07/05 09:21:47;;;;;;;8.97;8.07;;;18.90;99.90;;;;;;5074670;28;20858;-68
2021/07/05 09:24:14;;;;;;;9.13;8.33;;;18.90;99.90;;;;;;5075439;28;20895;-68
2021/07/05 09:26:42;;;;;;;10.20;7.93;;;18.90;99.90;;;;;;5075326;28;20466;-68
2021/07/05 09:29:23;;;;;;;9.70;8.80;;;19.00;99.90;;;;;;5075190;28;20462;-68
2021/07/05 09:31:54;;;;;;;10.23;8.30;;;19.10;99.90;;;;;;5075163;28;20450;-68
2021/07/05 09:34:24;;;;;;;9.13;8.10;;;19.10;99.90;;;;;;5075300;28;20470;-68
2021/07/05 09:36:55;;;;;;;9.30;7.47;;;19.20;99.90;;;;;;5075237;28;20447;-68
2021/07/05 09:39:24;;;;;;;8.80;8.00;;;19.30;99.90;;;;;;5075148;28;20465;-68
2021/07/05 09:41:55;;;;;;;8.97;8.10;;;19.40;99.90;;;;;;5075139;28;20461;-69
2021/07/05 09:44:24;;;;;;;9.33;8.43;;;19.40;99.90;;;;;;5075383;28;20485;-68
2021/07/05 09:46:53;;;;;;;11.00;9.30;;;19.60;99.90;;;;;;5075359;28;20524;-68
2021/07/05 09:49:29;;;;;;;9.77;8.77;;;19.60;99.90;;;;;;5075016;28;20492;-68
2021/07/05 09:52:10;;;;;;;9.80;8.80;;;19.60;99.90;;;;;;5074607;28;20453;-69
2021/07/05 09:54:39;;;;;;;10.57;9.47;;;19.60;99.90;;;;;;5075006;28;20470;-68
2021/07/05 09:57:25;;;;;;;10.07;9.07;;;19.60;99.90;;;;;;5075196;28;20458;-68
2021/07/05 09:59:52;;;;;;;10.07;9.07;;;19.50;99.90;;;;;;5075771;28;20512;-68
2021/07/05 10:02:19;;;;;;;9.80;8.90;;;19.60;99.90;;;;;;5075368;28;20454;-68
2021/07/05 10:04:48;;;;;;;10.93;9.80;;;19.50;99.90;;;;;;5075569;28;20454;-68
2021/07/05 10:07:16;;;;;;;10.30;9.23;;;19.50;99.90;;;;;;5076072;28;20488;-67
2021/07/05 10:09:44;;;;;;;10.07;9.07;;;19.50;99.90;;;;;;5075367;28;20462;-68
2021/07/05 10:12:20;;;;;;;11.00;9.67;;;19.60;99.90;;;;;;5075113;28;20535;-67
2021/07/05 10:14:58;;;;;;;10.37;9.33;;;19.60;99.90;;;;;;5074632;28;20477;-68
2021/07/05 10:17:27;;;;;;;9.60;8.60;;;19.70;99.90;;;;;;5075008;28;20464;-70
2021/07/05 10:19:55;;;;;;;12.30;9.63;;;19.70;99.90;;;;;;5075340;28;20796;-67
2021/07/05 10:22:23;;;;;;;9.43;8.40;;;19.70;99.90;;;;;;5074626;28;20462;-68
2021/07/05 10:24:51;;;;;;;10.30;9.40;;;19.80;99.90;;;;;;5074927;28;20469;-68
2021/07/05 10:27:18;;;;;;;10.00;9.10;;;19.90;99.90;;;;;;5075006;28;20553;-68
2021/07/05 10:29:47;;;;;;;9.33;8.43;;;20.00;99.90;;;;;;5074517;28;20473;-69
2021/07/05 10:32:15;;;;;;;10.00;8.20;;;20.10;99.90;;;;;;5074063;28;20549;-68
2021/07/05 10:34:46;;;;;;;9.87;8.93;;;20.10;99.90;;;;;;5078494;28;20854;-68
2021/07/05 10:37:19;;;;;;;10.43;8.97;;;20.20;99.90;;;;;;5078653;28;20434;-68
2021/07/05 10:39:49;;;;;;;9.23;8.30;;;20.30;99.90;;;;;;5078823;28;20438;-68
2021/07/05 10:42:38;;;;;;;9.60;8.60;;;20.40;99.90;;;;;;5079042;28;20442;-68
2021/07/05 10:45:09;;;;;;;9.77;8.87;;;20.40;99.90;;;;;;5078724;28;20768;-68
2021/07/05 10:47:52;;;;;;;9.73;8.83;;;20.50;99.90;;;;;;5078284;28;20485;-69
2021/07/05 10:50:51;;;;;;;11.00;9.90;;;20.70;99.90;;;;;;5078127;28;20447;-68
2021/07/05 10:53:41;;;;;;;8.97;8.07;;;20.90;99.90;;;;;;5077725;28;20482;-68
2021/07/05 10:56:30;;;;;;;9.73;8.73;;;21.00;99.90;;;;;;5077598;28;20477;-68
2021/07/05 10:59:16;;;;;;;9.43;8.40;;;21.00;99.90;;;;;;5078014;28;20430;-67
2021/07/05 11:01:45;;;;;;;8.47;7.67;;;21.00;99.90;;;;;;5077915;28;20894;-68
2021/07/05 11:04:20;;;;;;;8.20;7.40;;;21.00;99.90;;;;;;5079701;28;20870;-68
2021/07/05 11:06:48;;;;;;;8.53;7.70;;;21.00;99.90;;;;;;5078654;28;20453;-68
2021/07/05 11:09:21;;;;;;;8.50;7.60;;;21.10;99.90;;;;;;5078238;28;20450;-68
2021/07/05 11:11:53;;;;;;;9.17;7.37;;;21.00;99.90;;;;;;5077616;28;20883;-67
2021/07/05 11:14:26;;;;;;;7.70;7.00;;;21.00;99.90;;;;;;5078590;28;20438;-67
2021/07/05 11:17:22;;;;;;;10.00;6.20;;;21.10;99.90;;;;;;5078416;28;20755;-68
2021/07/05 11:19:49;;;;;;;5.90;5.40;;;21.00;99.90;;;;;;5077759;28;20443;-68
2021/07/05 11:22:25;;;;;;;5.83;5.17;;;21.00;99.90;;;;;;5076779;28;20454;-68
2021/07/05 11:24:59;;;;;;;6.40;5.13;;;21.00;99.90;;;;;;5076915;28;20816;-68
2021/07/05 11:27:47;;;;;;;5.57;5.07;;;20.90;99.90;;;;;;5076186;28;20755;-68
2021/07/05 11:30:27;;;;;;;5.53;5.03;;;20.90;99.90;;;;;;5076087;28;20878;-68
2021/07/05 11:32:56;;;;;;;5.23;4.80;;;20.90;99.90;;;;;;5075659;28;20455;-68
2021/07/05 11:35:38;;;;;;;5.97;5.20;;;21.00;99.90;;;;;;5075537;28;20856;-68
2021/07/05 11:38:09;;;;;;;6.37;5.77;;;21.00;99.90;;;;;;5075021;28;20442;-68
2021/07/05 11:40:56;;;;;;;4.80;4.40;;;21.10;99.90;;;;;;5075812;28;20805;-67
2021/07/05 11:43:47;;;;;;;5.10;4.40;;;21.10;99.90;;;;;;5075266;28;20441;-68
2021/07/05 11:46:39;;;;;;;4.30;3.90;;;21.10;99.90;;;;;;5075537;28;20762;-69
2021/07/05 11:49:07;;;;;;;4.30;3.90;;;21.10;99.90;;;;;;5075145;28;20805;-67
2021/07/05 11:51:36;;;;;;;4.60;4.20;;;21.20;99.90;;;;;;5075645;28;20474;-68
2021/07/05 11:54:05;;;;;;;4.73;4.27;;;21.30;99.90;;;;;;5075800;28;20790;-66
2021/07/05 11:56:36;;;;;;;5.67;4.50;;;21.70;99.90;;;;;;5075858;28;20477;-68
2021/07/05 11:59:06;;;;;;;3.90;3.60;;;22.10;91.70;;;;;;5075631;28;20449;-67
2021/07/05 12:01:35;;;;;;;5.10;4.60;;;22.40;64.60;;;;;;5075780;28;20518;-68
2021/07/05 12:04:04;;;;;;;3.90;3.60;;;23.10;25.80;;;;;;5075474;28;20684;-67
2021/07/05 12:06:31;;;;;;;4.03;3.73;;;23.70;1.00;;;;;;5075143;28;20465;-67
2021/07/05 12:08:59;;;;;;;4.30;3.90;;;24.00;1.00;;;;;;5075051;28;20489;-67
2021/07/05 12:11:41;;;;;;;5.30;4.77;;;24.10;1.00;;;;;;5074891;28;20458;-67
2021/07/05 12:14:14;;;;;;;5.00;4.60;;;23.90;99.90;;;;;;5075292;28;20442;-68
2021/07/05 12:16:45;;;;;;;5.20;4.80;;;23.80;1.00;;;;;;5074949;28;20477;-68
2021/07/05 12:19:14;;;;;;;5.67;5.20;;;23.80;51.90;;;;;;5074932;28;20458;-68
2021/07/05 12:21:43;;;;;;;5.33;4.93;;;23.40;1.00;;;;;;5074692;28;20468;-68
2021/07/05 12:24:26;;;;;;;7.13;4.90;;;23.30;1.00;;;;;;5076200;28;20455;-67
2021/07/05 12:26:56;;;;;;;5.00;4.57;;;23.30;1.00;;;;;;5076292;28;20435;-67
2021/07/05 12:29:26;;;;;;;5.13;4.63;;;23.40;99.90;;;;;;5076249;28;20457;-67
2021/07/05 12:32:03;;;;;;;4.47;4.17;;;23.40;1.00;;;;;;5076114;28;20470;-67
2021/07/05 12:34:48;;;;;;;4.60;4.00;;;23.80;1.00;;;;;;5075767;28;20484;-66
2021/07/05 12:37:22;;;;;;;5.23;4.73;;;24.70;99.90;;;;;;5076169;28;20435;-66
2021/07/05 12:39:53;;;;;;;4.10;3.80;;;25.70;1.00;;;;;;5076052;28;20435;-67
2021/07/05 12:42:34;;;;;;;6.43;3.73;;;26.60;1.00;;;;;;5076176;28;20454;-67
2021/07/05 12:45:04;;;;;;;4.33;4.03;;;27.20;1.00;;;;;;5075760;28;20439;-67
2021/07/05 12:47:31;;;;;;;4.90;4.50;;;27.70;1.00;;;;;;5075606;28;20478;-66
2021/07/05 12:49:58;;;;;;;4.27;3.97;;;27.80;1.00;;;;;;5075493;28;20445;-67
2021/07/05 12:52:26;;;;;;;3.70;3.40;;;28.00;99.90;;;;;;5075753;28;20834;-66
2021/07/05 12:55:15;;;;;;;4.40;4.10;;;28.00;99.90;;;;;;5075002;28;21028;-66